CCM77ZT LFKJ-EBCI
Flight info
| Callsign | CCM77ZT |
|---|---|
| Flight time | N/A |
| Altitude | 34000 |
| Route | LONSU M622 PIGOS DCT BARSO DCT IRMAR DCT KINES DCT VANAS DCT MOBLO DCT UBIMA DCT GILIR DCT PENDU DCT IXILU DCT EPL/N0454F320 DCT ROUSY/N0455F310 M624 DIK/N0456F300 Y37 BATTY |
| Aircraft | A320/M-SDE3FGHIRWY/LB1 |
Departure
| Time | 2026-04-26 07:00 |
|---|---|
| Airport | Ajaccio Napoléon Bonaparte airport (LFKJ) |
Arrival
| Time | N/A |
|---|---|
| Airport | Brussels South Charleroi Airport (EBCI) |
| Time | Latitude | Longitude | Altitude | Speed | Heading |
|---|---|---|---|---|---|
| 2026-04-26 06:33 | 41.91901 | 8.79542 | 26 ft | 0 kts | 345° |
| 2026-04-26 06:53 | 41.91906 | 8.79540 | 30 ft | 4 kts | 348° |
| 2026-04-26 06:53 | 41.91900 | 8.79567 | 28 ft | 4 kts | 121° |
| 2026-04-26 06:53 | 41.91911 | 8.79614 | 29 ft | 8 kts | 41° |
| 2026-04-26 06:54 | 41.91970 | 8.79653 | 29 ft | 10 kts | 25° |
| 2026-04-26 06:54 | 41.92040 | 8.79696 | 29 ft | 12 kts | 25° |
| 2026-04-26 06:54 | 41.92118 | 8.79745 | 28 ft | 13 kts | 25° |
| 2026-04-26 06:54 | 41.92203 | 8.79797 | 27 ft | 14 kts | 25° |
| 2026-04-26 06:55 | 41.92295 | 8.79854 | 28 ft | 15 kts | 25° |
| 2026-04-26 06:55 | 41.92389 | 8.79913 | 27 ft | 15 kts | 25° |
| 2026-04-26 06:55 | 41.92485 | 8.79973 | 30 ft | 15 kts | 25° |
| 2026-04-26 06:55 | 41.92581 | 8.80032 | 27 ft | 15 kts | 25° |
| 2026-04-26 06:56 | 41.92678 | 8.80093 | 26 ft | 16 kts | 25° |
| 2026-04-26 06:56 | 41.92780 | 8.80168 | 27 ft | 17 kts | 35° |
| 2026-04-26 06:56 | 41.92868 | 8.80277 | 27 ft | 16 kts | 46° |
| 2026-04-26 06:56 | 41.92929 | 8.80363 | 29 ft | 10 kts | 46° |
| 2026-04-26 06:57 | 41.92965 | 8.80428 | 31 ft | 8 kts | 69° |
| 2026-04-26 06:57 | 41.92961 | 8.80483 | 31 ft | 5 kts | 114° |
| 2026-04-26 06:57 | 41.92950 | 8.80515 | 32 ft | 4 kts | 115° |
| 2026-04-26 06:57 | 41.92942 | 8.80572 | 31 ft | 11 kts | 84° |
| 2026-04-26 06:58 | 41.93023 | 8.80641 | 31 ft | 15 kts | 24° |
| 2026-04-26 06:58 | 41.93112 | 8.80660 | 32 ft | 10 kts | 351° |
| 2026-04-26 06:58 | 41.93159 | 8.80686 | 31 ft | 8 kts | 79° |
| 2026-04-26 06:58 | 41.93133 | 8.80712 | 32 ft | 3 kts | 193° |
| 2026-04-26 06:59 | 41.93125 | 8.80707 | 32 ft | 0 kts | 204° |
| 2026-04-26 06:59 | 41.93119 | 8.80703 | 32 ft | 5 kts | 205° |
| 2026-04-26 06:59 | 41.92935 | 8.80584 | 31 ft | 67 kts | 205° |
| 2026-04-26 07:00 | 41.92298 | 8.80188 | 22 ft | 132 kts | 205° |
| 2026-04-26 07:00 | 41.91315 | 8.79579 | 131 ft | 170 kts | 205° |
| 2026-04-26 07:00 | 41.90283 | 8.78871 | 790 ft | 168 kts | 218° |
| 2026-04-26 07:00 | 41.89646 | 8.77597 | 1426 ft | 168 kts | 244° |
| 2026-04-26 07:01 | 41.89101 | 8.76197 | 2021 ft | 175 kts | 242° |
| 2026-04-26 07:01 | 41.88474 | 8.74676 | 2379 ft | 197 kts | 241° |
| 2026-04-26 07:01 | 41.87762 | 8.72981 | 2675 ft | 218 kts | 240° |
| 2026-04-26 07:01 | 41.86974 | 8.71131 | 3081 ft | 236 kts | 240° |
| 2026-04-26 07:02 | 41.86151 | 8.69205 | 3766 ft | 244 kts | 240° |
| 2026-04-26 07:02 | 41.85272 | 8.67152 | 4303 ft | 260 kts | 240° |
| 2026-04-26 07:02 | 41.84382 | 8.65009 | 5113 ft | 265 kts | 247° |
| 2026-04-26 07:02 | 41.83975 | 8.62601 | 5903 ft | 269 kts | 271° |
| 2026-04-26 07:03 | 41.84345 | 8.60142 | 6700 ft | 273 kts | 295° |
| 2026-04-26 07:03 | 41.85456 | 8.58079 | 7469 ft | 276 kts | 319° |
| 2026-04-26 07:03 | 41.87113 | 8.56753 | 8256 ft | 280 kts | 336° |
| 2026-04-26 07:03 | 41.88908 | 8.55693 | 9065 ft | 283 kts | 336° |
| 2026-04-26 07:04 | 41.90721 | 8.54629 | 9856 ft | 287 kts | 336° |
| 2026-04-26 07:04 | 41.92571 | 8.53543 | 10513 ft | 295 kts | 335° |
| 2026-04-26 07:04 | 41.94524 | 8.52390 | 10733 ft | 318 kts | 335° |
| 2026-04-26 07:04 | 41.96624 | 8.51148 | 10905 ft | 341 kts | 335° |
| 2026-04-26 07:05 | 41.98847 | 8.49832 | 11254 ft | 356 kts | 335° |
| 2026-04-26 07:05 | 42.01130 | 8.48481 | 11882 ft | 361 kts | 335° |
| 2026-04-26 07:05 | 42.03440 | 8.47113 | 12554 ft | 364 kts | 335° |
| 2026-04-26 07:05 | 42.04984 | 8.46196 | 13000 ft | 367 kts | 335° |
| 2026-04-26 07:06 | 42.07330 | 8.44798 | 13672 ft | 370 kts | 335° |
| 2026-04-26 07:06 | 42.09698 | 8.43386 | 14296 ft | 374 kts | 336° |
| 2026-04-26 07:06 | 42.12084 | 8.41964 | 14913 ft | 376 kts | 336° |
| 2026-04-26 07:06 | 42.14489 | 8.40528 | 15458 ft | 380 kts | 336° |
| 2026-04-26 07:07 | 42.16916 | 8.39080 | 16051 ft | 383 kts | 336° |
| 2026-04-26 07:07 | 42.19362 | 8.37617 | 16620 ft | 386 kts | 337° |
| 2026-04-26 07:07 | 42.21835 | 8.36138 | 17169 ft | 390 kts | 337° |
| 2026-04-26 07:07 | 42.24329 | 8.34647 | 17726 ft | 394 kts | 337° |
| 2026-04-26 07:08 | 42.26848 | 8.33140 | 18271 ft | 398 kts | 337° |
| 2026-04-26 07:08 | 42.29397 | 8.31615 | 18780 ft | 401 kts | 337° |
| 2026-04-26 07:08 | 42.31925 | 8.30098 | 19285 ft | 404 kts | 337° |
| 2026-04-26 07:08 | 42.34492 | 8.28553 | 19849 ft | 405 kts | 336° |
| 2026-04-26 07:09 | 42.37072 | 8.26999 | 20355 ft | 407 kts | 336° |
| 2026-04-26 07:09 | 42.39669 | 8.25440 | 20841 ft | 409 kts | 336° |
| 2026-04-26 07:09 | 42.42279 | 8.23870 | 21313 ft | 412 kts | 336° |
| 2026-04-26 07:09 | 42.44904 | 8.22289 | 21783 ft | 414 kts | 336° |
| 2026-04-26 07:10 | 42.52864 | 8.17483 | 23074 ft | 422 kts | 336° |
| 2026-04-26 07:11 | 42.58250 | 8.14231 | 23901 ft | 425 kts | 336° |
| 2026-04-26 07:11 | 42.60958 | 8.12588 | 24236 ft | 428 kts | 336° |
| 2026-04-26 07:11 | 42.63649 | 8.10950 | 24561 ft | 429 kts | 336° |
| 2026-04-26 07:11 | 42.66384 | 8.09281 | 24869 ft | 432 kts | 336° |
| 2026-04-26 07:12 | 42.69129 | 8.07604 | 25209 ft | 433 kts | 336° |
| 2026-04-26 07:12 | 42.71889 | 8.05918 | 25561 ft | 434 kts | 336° |
| 2026-04-26 07:12 | 42.74655 | 8.04236 | 25848 ft | 437 kts | 336° |
| 2026-04-26 07:12 | 42.77433 | 8.02542 | 26147 ft | 439 kts | 335° |
| 2026-04-26 07:13 | 42.80184 | 8.00717 | 26441 ft | 441 kts | 333° |
| 2026-04-26 07:13 | 42.82889 | 7.98736 | 26748 ft | 442 kts | 331° |
| 2026-04-26 07:13 | 42.85559 | 7.96661 | 27053 ft | 443 kts | 330° |
| 2026-04-26 07:13 | 42.88231 | 7.94535 | 27339 ft | 445 kts | 330° |
| 2026-04-26 07:14 | 42.90910 | 7.92410 | 27612 ft | 446 kts | 330° |
| 2026-04-26 07:14 | 42.93610 | 7.90300 | 27861 ft | 448 kts | 330° |
| 2026-04-26 07:14 | 42.96324 | 7.88211 | 28120 ft | 449 kts | 330° |
| 2026-04-26 07:14 | 42.99066 | 7.86120 | 28359 ft | 451 kts | 331° |
| 2026-04-26 07:15 | 43.01807 | 7.84038 | 28603 ft | 452 kts | 331° |
| 2026-04-26 07:15 | 43.04570 | 7.81941 | 28832 ft | 454 kts | 331° |